createdAt,value
2022-07-30T00:02:21.921Z,69.00
2022-07-30T00:04:50.670Z,69.00
2022-07-30T00:07:19.177Z,69.20
2022-07-30T00:09:47.795Z,69.40
2022-07-30T00:12:16.461Z,69.50
2022-07-30T00:14:44.952Z,69.50
2022-07-30T00:17:13.588Z,69.80
2022-07-30T00:19:45.068Z,69.90
2022-07-30T00:22:13.750Z,69.80
2022-07-30T00:24:42.280Z,69.90
2022-07-30T00:27:11.818Z,69.90
2022-07-30T00:29:44.949Z,69.90
2022-07-30T00:32:13.761Z,69.60
2022-07-30T00:34:42.344Z,69.50
2022-07-30T00:37:12.377Z,69.50
2022-07-30T00:39:40.805Z,69.70
2022-07-30T00:42:38.033Z,69.60
2022-07-30T00:45:07.296Z,69.70
2022-07-30T00:47:36.691Z,69.80
2022-07-30T00:50:05.811Z,69.90
2022-07-30T00:52:35.852Z,70.00
2022-07-30T00:55:06.253Z,70.00
2022-07-30T00:57:34.781Z,70.10
2022-07-30T01:00:03.665Z,70.30
2022-07-30T01:02:32.218Z,70.20
2022-07-30T01:05:00.894Z,70.40
2022-07-30T01:07:29.487Z,70.60
2022-07-30T01:09:59.395Z,70.60
2022-07-30T01:12:28.572Z,70.80
2022-07-30T01:14:58.266Z,71.00
2022-07-30T01:17:26.954Z,71.00
2022-07-30T01:19:58.867Z,71.30
2022-07-30T01:22:32.560Z,71.50
2022-07-30T01:25:07.155Z,71.60
2022-07-30T01:27:39.941Z,71.80
2022-07-30T01:30:09.920Z,71.90
2022-07-30T01:32:40.560Z,72.20
2022-07-30T01:35:12.427Z,72.40
2022-07-30T01:37:41.638Z,72.50
2022-07-30T01:40:10.858Z,72.70
2022-07-30T01:42:41.650Z,72.80
2022-07-30T01:45:10.902Z,73.00
2022-07-30T01:47:40.309Z,73.30
2022-07-30T01:50:13.903Z,73.20
2022-07-30T01:52:44.026Z,73.40
2022-07-30T01:55:17.626Z,73.60
2022-07-30T01:57:49.037Z,73.60
2022-07-30T02:00:18.056Z,73.70
2022-07-30T02:02:46.936Z,73.70
2022-07-30T02:05:16.691Z,73.80
2022-07-30T02:07:47.776Z,73.90
2022-07-30T02:10:36.456Z,74.10
2022-07-30T02:13:08.196Z,74.20
2022-07-30T02:15:40.275Z,74.30
2022-07-30T02:18:11.825Z,74.40
2022-07-30T02:20:43.989Z,74.40
2022-07-30T02:23:15.879Z,74.60
2022-07-30T02:25:46.096Z,74.60
2022-07-30T02:28:16.886Z,75.40
2022-07-30T02:30:49.523Z,74.70
2022-07-30T02:33:20.534Z,75.00
2022-07-30T02:35:52.260Z,75.10
2022-07-30T02:38:22.426Z,75.20
2022-07-30T02:40:54.750Z,75.40
2022-07-30T02:43:26.709Z,75.50
2022-07-30T02:45:55.737Z,75.50
2022-07-30T02:48:35.109Z,75.70
2022-07-30T02:51:05.698Z,75.80
2022-07-30T02:53:35.322Z,75.90
2022-07-30T02:56:04.515Z,76.00
2022-07-30T02:58:38.251Z,76.00
2022-07-30T03:01:07.041Z,76.20
2022-07-30T03:03:36.561Z,76.30
2022-07-30T03:06:07.202Z,76.30
2022-07-30T03:08:35.843Z,76.40
2022-07-30T03:11:04.923Z,76.40
2022-07-30T03:13:35.107Z,76.40
2022-07-30T03:16:05.800Z,76.40
2022-07-30T03:18:36.333Z,76.50
2022-07-30T03:21:25.328Z,76.60
2022-07-30T03:23:55.970Z,76.60
2022-07-30T03:26:44.359Z,76.70
2022-07-30T03:29:17.616Z,76.80
2022-07-30T03:32:09.216Z,77.00
2022-07-30T03:34:43.757Z,77.00
2022-07-30T03:37:13.709Z,77.10
2022-07-30T03:39:42.436Z,77.30
2022-07-30T03:42:13.176Z,77.30
2022-07-30T03:44:45.902Z,77.40
2022-07-30T03:47:16.097Z,77.60
2022-07-30T03:49:48.869Z,77.60
2022-07-30T03:52:18.816Z,77.60
2022-07-30T03:54:48.939Z,77.70
2022-07-30T03:57:36.414Z,77.70
2022-07-30T04:00:08.149Z,77.70
2022-07-30T04:02:44.682Z,77.90
2022-07-30T04:05:41.140Z,77.90
2022-07-30T04:08:10.691Z,78.20
2022-07-30T04:10:40.361Z,78.20
2022-07-30T04:13:27.462Z,78.50
2022-07-30T04:16:38.049Z,78.60
2022-07-30T04:19:12.450Z,78.80
2022-07-30T04:21:41.797Z,78.90
2022-07-30T04:24:12.588Z,79.00
2022-07-30T04:26:41.338Z,79.00
2022-07-30T04:29:13.479Z,79.10
2022-07-30T04:31:47.746Z,79.30
2022-07-30T04:34:34.994Z,79.20
2022-07-30T04:37:05.930Z,79.20
2022-07-30T04:39:34.703Z,79.10
2022-07-30T04:42:03.177Z,79.10
2022-07-30T04:44:34.776Z,79.10
2022-07-30T04:47:28.097Z,79.10
2022-07-30T04:50:14.058Z,79.00
2022-07-30T04:52:44.559Z,79.00
2022-07-30T04:55:32.113Z,79.00
2022-07-30T04:58:02.050Z,78.90
2022-07-30T05:00:40.443Z,78.90
2022-07-30T05:03:14.656Z,78.90
2022-07-30T05:05:48.738Z,78.80
2022-07-30T05:08:17.504Z,79.00
2022-07-30T05:10:46.309Z,78.90
2022-07-30T05:13:16.517Z,78.80
2022-07-30T05:15:45.866Z,78.90
2022-07-30T05:18:18.981Z,78.70
2022-07-30T05:20:48.609Z,78.70
2022-07-30T05:23:30.712Z,78.70
2022-07-30T05:26:06.821Z,78.40
2022-07-30T05:28:42.728Z,78.40
2022-07-30T05:31:15.563Z,78.40
2022-07-30T05:33:52.035Z,78.30
2022-07-30T05:36:21.751Z,78.10
2022-07-30T05:38:50.540Z,77.90
2022-07-30T05:41:39.406Z,77.70
2022-07-30T05:44:31.002Z,77.50
2022-07-30T05:47:00.755Z,77.30
2022-07-30T05:49:30.979Z,77.30
2022-07-30T05:52:07.787Z,77.20
2022-07-30T05:54:36.440Z,77.00
2022-07-30T05:57:23.820Z,77.00
2022-07-30T06:00:11.926Z,76.50
2022-07-30T06:02:46.161Z,76.10
2022-07-30T06:05:44.776Z,75.90
2022-07-30T06:08:13.702Z,75.40
2022-07-30T06:10:42.295Z,75.00
2022-07-30T06:13:13.461Z,74.40
2022-07-30T06:15:42.155Z,73.70
2022-07-30T06:18:11.019Z,73.20
2022-07-30T06:20:59.405Z,72.80
2022-07-30T06:23:38.114Z,72.40
2022-07-30T06:26:25.303Z,72.10
2022-07-30T06:28:54.413Z,71.80
2022-07-30T06:31:30.815Z,71.30
2022-07-30T06:33:59.819Z,70.70
2022-07-30T06:36:34.087Z,70.00
2022-07-30T06:39:06.530Z,69.70
2022-07-30T06:41:58.076Z,69.30
2022-07-30T06:44:42.666Z,68.90
2022-07-30T06:47:26.425Z,68.70
2022-07-30T06:49:55.142Z,68.40
2022-07-30T06:52:25.220Z,68.20
2022-07-30T06:54:55.194Z,68.10
2022-07-30T06:57:42.574Z,68.00
2022-07-30T07:00:29.979Z,67.50
2022-07-30T07:03:02.509Z,67.00
2022-07-30T07:05:37.464Z,66.60
2022-07-30T07:08:07.884Z,66.20
2022-07-30T07:10:40.684Z,65.90
2022-07-30T07:13:41.379Z,65.70
2022-07-30T07:16:14.214Z,65.40
2022-07-30T07:18:46.348Z,64.80
2022-07-30T07:21:15.148Z,64.60
2022-07-30T07:23:46.170Z,64.20
2022-07-30T07:26:40.993Z,63.80
2022-07-30T07:29:10.953Z,63.40
2022-07-30T07:32:07.381Z,63.10
2022-07-30T07:34:28.850Z,62.90
2022-07-30T07:36:57.463Z,62.40
2022-07-30T07:39:27.542Z,62.20
2022-07-30T07:41:57.103Z,62.10
2022-07-30T07:44:27.601Z,61.90
2022-07-30T07:46:56.198Z,61.50
2022-07-30T07:49:28.540Z,61.30
2022-07-30T07:51:57.769Z,61.20
2022-07-30T07:54:28.021Z,61.10
2022-07-30T07:56:57.563Z,60.80
2022-07-30T07:59:40.532Z,60.30
2022-07-30T08:02:23.735Z,60.00
2022-07-30T08:04:59.162Z,59.80
2022-07-30T08:07:47.072Z,59.70
2022-07-30T08:10:45.998Z,59.40
2022-07-30T08:13:52.376Z,59.30
2022-07-30T08:16:40.391Z,59.00
2022-07-30T08:19:47.680Z,58.50
2022-07-30T08:22:22.920Z,58.00
2022-07-30T08:24:51.572Z,57.60
2022-07-30T08:27:21.651Z,57.60
2022-07-30T08:29:50.413Z,57.60
2022-07-30T08:32:19.069Z,57.30
2022-07-30T08:34:48.093Z,57.30
2022-07-30T08:37:17.032Z,56.60
2022-07-30T08:39:45.533Z,56.20
2022-07-30T08:42:14.971Z,56.10
2022-07-30T08:44:45.989Z,55.80
2022-07-30T08:47:18.120Z,55.80
2022-07-30T08:50:06.106Z,55.60
2022-07-30T08:52:38.323Z,55.50
2022-07-30T08:55:09.276Z,55.10
2022-07-30T08:57:56.434Z,54.90
2022-07-30T09:00:26.497Z,54.60
2022-07-30T09:03:13.531Z,54.10
2022-07-30T09:05:42.306Z,54.30
2022-07-30T09:08:10.847Z,54.20
2022-07-30T09:10:40.350Z,54.20
2022-07-30T09:13:25.259Z,54.50
2022-07-30T09:15:56.518Z,54.40
2022-07-30T09:18:30.116Z,54.00
2022-07-30T09:21:00.019Z,53.90
2022-07-30T09:23:29.934Z,53.40
2022-07-30T09:26:34.370Z,53.40
2022-07-30T09:29:37.798Z,53.40
2022-07-30T09:32:26.297Z,53.40
2022-07-30T09:35:26.986Z,53.10
2022-07-30T09:38:11.612Z,53.00
2022-07-30T09:40:57.762Z,52.80
2022-07-30T09:43:47.895Z,52.50
2022-07-30T09:46:47.704Z,52.10
2022-07-30T09:49:25.318Z,52.00
2022-07-30T09:51:56.906Z,51.90
2022-07-30T09:54:51.117Z,51.50
2022-07-30T09:57:27.456Z,51.30
2022-07-30T10:00:18.597Z,50.90
2022-07-30T10:02:53.932Z,50.70
2022-07-30T10:05:50.517Z,50.50
2022-07-30T10:08:22.236Z,50.30
2022-07-30T10:10:51.159Z,50.30
2022-07-30T10:13:21.404Z,50.10
2022-07-30T10:16:08.887Z,50.10
2022-07-30T10:18:38.849Z,49.80
2022-07-30T10:21:32.402Z,50.00
2022-07-30T10:24:27.837Z,49.20
2022-07-30T10:27:15.430Z,48.90
2022-07-30T10:29:57.849Z,48.80
2022-07-30T10:32:30.866Z,48.60
2022-07-30T10:35:00.952Z,48.30
2022-07-30T10:37:32.551Z,48.20
2022-07-30T10:40:05.341Z,47.80
2022-07-30T10:42:46.795Z,47.60
2022-07-30T10:45:19.760Z,47.50
2022-07-30T10:47:49.848Z,47.70
2022-07-30T10:50:50.065Z,47.20
2022-07-30T10:56:14.564Z,46.80
2022-07-30T10:59:02.842Z,46.40
2022-07-30T11:01:53.656Z,46.60
2022-07-30T11:04:25.739Z,46.40
2022-07-30T11:07:17.435Z,45.50
2022-07-30T11:09:49.826Z,45.20
2022-07-30T11:12:55.378Z,45.50
2022-07-30T11:15:24.097Z,45.10
2022-07-30T11:18:04.537Z,45.10
2022-07-30T11:20:33.512Z,44.90
2022-07-30T11:23:10.822Z,44.30
2022-07-30T11:25:50.165Z,43.80
2022-07-30T11:28:41.590Z,43.20
2022-07-30T11:31:37.190Z,42.80
2022-07-30T11:34:27.935Z,42.10
2022-07-30T11:37:22.289Z,41.70
2022-07-30T11:40:13.545Z,41.70
2022-07-30T11:42:43.072Z,41.40
2022-07-30T11:45:29.882Z,41.50
2022-07-30T11:48:00.393Z,41.30
2022-07-30T11:50:30.423Z,41.30
2022-07-30T11:52:59.937Z,41.10
2022-07-30T11:55:30.504Z,40.90
2022-07-30T11:57:59.174Z,40.90
2022-07-30T12:00:34.875Z,40.40
2022-07-30T12:03:22.890Z,40.10
2022-07-30T12:05:53.342Z,39.90
2022-07-30T12:08:36.153Z,39.00
2022-07-30T12:11:05.095Z,38.80
2022-07-30T12:13:44.834Z,38.60
2022-07-30T12:16:19.055Z,38.60
2022-07-30T12:18:48.524Z,38.10
2022-07-30T12:21:17.154Z,38.00
2022-07-30T12:23:55.318Z,38.80
2022-07-30T12:26:26.706Z,39.30
2022-07-30T12:28:56.468Z,39.30
2022-07-30T12:31:26.608Z,39.60
2022-07-30T12:33:58.962Z,39.90
2022-07-30T12:36:29.551Z,40.30
2022-07-30T12:38:58.363Z,40.60
2022-07-30T12:41:42.584Z,40.70
2022-07-30T12:44:36.629Z,40.40
2022-07-30T12:47:07.788Z,40.10
2022-07-30T12:49:55.701Z,39.20
2022-07-30T12:52:28.741Z,38.60
2022-07-30T12:55:01.757Z,37.80
2022-07-30T12:57:30.474Z,36.60
2022-07-30T13:00:02.924Z,36.00
2022-07-30T13:02:34.182Z,35.90
2022-07-30T13:05:11.473Z,36.10
2022-07-30T13:07:53.894Z,36.00
2022-07-30T13:10:25.050Z,36.20
2022-07-30T13:13:14.487Z,36.40
2022-07-30T13:15:46.401Z,36.70
2022-07-30T13:18:24.439Z,36.30
2022-07-30T13:20:53.156Z,36.60
2022-07-30T13:23:21.902Z,37.40
2022-07-30T13:25:50.777Z,38.00
2022-07-30T13:28:19.829Z,38.60
2022-07-30T13:30:48.478Z,39.00
2022-07-30T13:33:17.582Z,39.50
2022-07-30T13:35:47.504Z,40.00
2022-07-30T13:38:16.084Z,40.30
2022-07-30T13:40:44.704Z,40.40
2022-07-30T13:43:13.334Z,40.60
2022-07-30T13:45:41.894Z,40.60
2022-07-30T13:48:10.507Z,41.00
2022-07-30T13:50:39.081Z,42.00
2022-07-30T13:53:10.346Z,42.10
2022-07-30T13:55:39.343Z,42.40
2022-07-30T13:58:08.752Z,42.30
2022-07-30T14:00:38.705Z,42.30
2022-07-30T14:03:08.269Z,42.50
2022-07-30T14:05:42.294Z,42.70
2022-07-30T14:08:13.218Z,43.00
2022-07-30T14:10:42.186Z,43.10
2022-07-30T14:13:15.984Z,43.30
2022-07-30T14:16:28.319Z,43.30
2022-07-30T14:18:57.831Z,43.30
2022-07-30T14:21:26.669Z,43.50
2022-07-30T14:24:16.440Z,43.30
2022-07-30T14:26:45.243Z,43.50
2022-07-30T14:29:13.761Z,43.80
2022-07-30T14:31:42.402Z,44.00
2022-07-30T14:34:11.024Z,44.50
2022-07-30T14:36:39.662Z,44.80
2022-07-30T14:39:08.226Z,45.10
2022-07-30T14:41:38.851Z,45.00
2022-07-30T14:44:12.322Z,45.10
2022-07-30T14:46:52.133Z,45.20
2022-07-30T14:49:21.870Z,45.60
2022-07-30T14:51:51.533Z,45.60
2022-07-30T14:54:20.121Z,45.90
2022-07-30T14:56:59.285Z,45.80
2022-07-30T14:59:28.044Z,46.00
2022-07-30T15:01:56.924Z,46.10
2022-07-30T15:04:25.778Z,46.00
2022-07-30T15:06:54.271Z,45.80
2022-07-30T15:09:22.929Z,45.40
2022-07-30T15:12:24.140Z,45.60
2022-07-30T15:14:42.565Z,45.90
2022-07-30T15:17:12.420Z,46.00
2022-07-30T15:19:49.437Z,46.40
2022-07-30T15:22:20.492Z,46.80
2022-07-30T15:24:49.131Z,46.40
2022-07-30T15:27:20.512Z,46.70
2022-07-30T15:29:51.000Z,46.70
2022-07-30T15:32:19.558Z,46.90
2022-07-30T15:34:48.123Z,46.80
2022-07-30T15:37:17.116Z,46.80
2022-07-30T15:39:45.807Z,46.80
2022-07-30T15:42:14.794Z,47.00
2022-07-30T15:44:48.874Z,47.30
2022-07-30T15:47:17.785Z,47.50
2022-07-30T15:49:54.244Z,47.90
2022-07-30T15:52:22.952Z,48.60
2022-07-30T15:54:51.570Z,48.20
2022-07-30T15:57:20.169Z,48.30
2022-07-30T15:59:50.145Z,48.60
2022-07-30T16:02:18.896Z,48.50
2022-07-30T16:04:48.333Z,48.70
2022-07-30T16:07:17.008Z,48.80
2022-07-30T16:09:45.513Z,48.90
2022-07-30T16:12:14.080Z,49.10
2022-07-30T16:14:42.657Z,49.00
2022-07-30T16:17:14.247Z,49.10
2022-07-30T16:19:45.098Z,49.20
2022-07-30T16:22:18.418Z,50.00
2022-07-30T16:24:52.798Z,49.50
2022-07-30T16:27:21.453Z,49.70
2022-07-30T16:29:50.071Z,49.80
2022-07-30T16:32:20.208Z,50.10
2022-07-30T16:34:50.014Z,50.10
2022-07-30T16:37:18.557Z,50.30
2022-07-30T16:39:47.065Z,50.30
2022-07-30T16:42:15.641Z,50.40
2022-07-30T16:44:44.246Z,50.70
2022-07-30T16:47:13.999Z,51.10
2022-07-30T16:50:02.447Z,51.30
2022-07-30T16:52:31.246Z,51.30
2022-07-30T16:54:59.826Z,51.50
2022-07-30T16:57:28.429Z,51.80
2022-07-30T16:59:56.993Z,51.80
2022-07-30T17:02:25.789Z,51.90
2022-07-30T17:04:54.523Z,52.10
2022-07-30T17:07:24.485Z,52.20
2022-07-30T17:09:53.714Z,52.20
2022-07-30T17:12:23.322Z,52.40
2022-07-30T17:14:54.270Z,52.50
2022-07-30T17:17:22.825Z,52.80
2022-07-30T17:19:51.350Z,53.00
2022-07-30T17:22:20.226Z,53.30
2022-07-30T17:24:50.275Z,53.70
2022-07-30T17:27:18.968Z,53.90
2022-07-30T17:29:50.211Z,54.20
2022-07-30T17:32:20.009Z,54.30
2022-07-30T17:35:10.863Z,54.50
2022-07-30T17:37:42.301Z,54.60
2022-07-30T17:40:30.802Z,54.80
2022-07-30T17:43:04.179Z,55.10
2022-07-30T17:45:33.414Z,55.10
2022-07-30T17:48:02.778Z,55.20
2022-07-30T17:50:32.557Z,55.20
2022-07-30T17:53:03.589Z,55.40
2022-07-30T17:55:35.563Z,55.40
2022-07-30T17:58:04.439Z,55.50
2022-07-30T18:00:34.863Z,55.60
2022-07-30T18:03:03.819Z,55.80
2022-07-30T18:05:32.428Z,55.90
2022-07-30T18:08:01.005Z,56.00
2022-07-30T18:10:29.653Z,56.00
2022-07-30T18:12:59.680Z,56.20
2022-07-30T18:15:48.884Z,56.30
2022-07-30T18:18:17.412Z,56.50
2022-07-30T18:20:48.013Z,56.70
2022-07-30T18:23:19.328Z,56.90
2022-07-30T18:25:51.756Z,57.00
2022-07-30T18:28:24.371Z,57.20
2022-07-30T18:30:53.437Z,57.30
2022-07-30T18:33:22.514Z,57.40
2022-07-30T18:35:51.333Z,57.60
2022-07-30T18:38:19.842Z,57.60
2022-07-30T18:40:57.940Z,57.90
2022-07-30T18:43:28.761Z,58.00
2022-07-30T18:45:57.866Z,58.30
2022-07-30T18:48:26.660Z,58.30
2022-07-30T18:50:55.204Z,59.10
2022-07-30T18:53:23.805Z,58.60
2022-07-30T18:55:52.396Z,58.80
2022-07-30T18:58:21.006Z,58.90
2022-07-30T19:00:51.106Z,59.20
2022-07-30T19:03:23.001Z,59.40
2022-07-30T19:05:51.956Z,59.60
2022-07-30T19:08:20.445Z,59.80
2022-07-30T19:10:48.972Z,59.90
2022-07-30T19:13:17.561Z,60.00
2022-07-30T19:15:46.108Z,60.10
2022-07-30T19:18:16.209Z,60.30
2022-07-30T19:20:44.906Z,60.50
2022-07-30T19:23:13.827Z,60.60
2022-07-30T19:25:42.559Z,60.80
2022-07-30T19:28:14.020Z,60.90
2022-07-30T19:30:42.717Z,61.00
2022-07-30T19:33:15.081Z,61.10
2022-07-30T19:35:46.079Z,61.20
2022-07-30T19:38:21.778Z,61.40
2022-07-30T19:41:09.102Z,61.70
2022-07-30T19:43:37.663Z,61.80
2022-07-30T19:46:08.066Z,62.00
2022-07-30T19:48:37.730Z,62.20
2022-07-30T19:51:15.607Z,62.50
2022-07-30T19:53:49.530Z,62.60
2022-07-30T19:56:18.103Z,63.00
2022-07-30T19:58:48.240Z,63.20
2022-07-30T20:01:16.750Z,63.50
2022-07-30T20:03:46.045Z,63.70
2022-07-30T20:06:18.561Z,63.90
2022-07-30T20:08:49.800Z,64.10
2022-07-30T20:11:34.995Z,64.30
2022-07-30T20:14:05.145Z,64.40
2022-07-30T20:16:35.661Z,64.40
2022-07-30T20:19:04.914Z,64.60
2022-07-30T20:22:06.816Z,64.60
2022-07-30T20:24:43.526Z,64.60
2022-07-30T20:27:37.301Z,64.80
2022-07-30T20:30:01.730Z,64.90
2022-07-30T20:32:30.293Z,65.10
2022-07-30T20:34:58.898Z,65.30
2022-07-30T20:37:28.913Z,65.50
2022-07-30T20:39:57.975Z,65.80
2022-07-30T20:42:26.524Z,66.10
2022-07-30T20:44:57.236Z,66.20
2022-07-30T20:47:38.005Z,66.50
2022-07-30T20:50:09.805Z,66.60
2022-07-30T20:52:41.054Z,66.80
2022-07-30T20:55:16.839Z,67.10
2022-07-30T20:58:00.320Z,67.20
2022-07-30T21:00:34.590Z,67.40
2022-07-30T21:03:03.588Z,67.50
2022-07-30T21:05:32.422Z,67.60
2022-07-30T21:08:02.353Z,67.60
2022-07-30T21:10:30.967Z,67.50
2022-07-30T21:13:03.482Z,67.60
2022-07-30T21:15:33.249Z,67.60
2022-07-30T21:18:02.197Z,67.60
2022-07-30T21:20:32.259Z,67.70
2022-07-30T21:23:10.052Z,67.90
2022-07-30T21:26:01.534Z,68.20
2022-07-30T21:28:29.838Z,68.10
2022-07-30T21:31:04.037Z,68.30
2022-07-30T21:33:36.553Z,68.50
2022-07-30T21:36:10.408Z,68.70
2022-07-30T21:38:42.029Z,68.80
2022-07-30T21:41:14.443Z,68.90
2022-07-30T21:43:44.391Z,68.90
2022-07-30T21:46:13.516Z,69.20
2022-07-30T21:48:43.415Z,69.30
2022-07-30T21:51:12.117Z,69.50
2022-07-30T21:53:45.010Z,69.70
2022-07-30T21:56:33.558Z,70.20
2022-07-30T21:59:02.494Z,70.00
2022-07-30T22:01:33.000Z,70.10
2022-07-30T22:04:08.455Z,70.20
2022-07-30T22:06:39.243Z,70.40
2022-07-30T22:09:24.338Z,70.40
2022-07-30T22:12:01.444Z,70.40
2022-07-30T22:14:31.515Z,70.70
2022-07-30T22:17:00.595Z,70.90
2022-07-30T22:19:51.972Z,71.00
2022-07-30T22:22:26.574Z,71.00
2022-07-30T22:25:00.246Z,71.10
2022-07-30T22:27:39.450Z,71.10
2022-07-30T22:30:09.967Z,71.10
2022-07-30T22:32:38.858Z,71.20
2022-07-30T22:35:08.317Z,71.20
2022-07-30T22:37:38.747Z,71.30
2022-07-30T22:40:10.298Z,71.30
2022-07-30T22:42:46.787Z,71.30
2022-07-30T22:45:46.460Z,71.40
2022-07-30T22:48:10.758Z,71.40
2022-07-30T22:50:41.040Z,71.50
2022-07-30T22:53:56.870Z,71.80
2022-07-30T22:56:00.028Z,72.00
2022-07-30T22:58:29.619Z,72.20
2022-07-30T23:00:58.273Z,72.40
2022-07-30T23:03:26.844Z,72.40
2022-07-30T23:05:57.143Z,72.30
2022-07-30T23:08:29.962Z,72.30
2022-07-30T23:11:01.182Z,72.20
2022-07-30T23:13:30.647Z,72.10
2022-07-30T23:15:59.181Z,72.00
2022-07-30T23:18:27.873Z,72.00
2022-07-30T23:21:00.231Z,72.00
2022-07-30T23:23:30.974Z,72.00
2022-07-30T23:26:04.595Z,71.90
2022-07-30T23:28:33.646Z,71.70
2022-07-30T23:31:03.527Z,71.70
2022-07-30T23:33:32.402Z,71.80
2022-07-30T23:36:01.477Z,71.70
2022-07-30T23:38:30.947Z,71.90
2022-07-30T23:41:02.045Z,72.10
2022-07-30T23:43:32.314Z,72.20
2022-07-30T23:46:01.042Z,72.40
2022-07-30T23:48:29.555Z,72.40
2022-07-30T23:50:58.234Z,72.50
2022-07-30T23:53:27.088Z,72.60
2022-07-30T23:55:55.616Z,72.60
2022-07-30T23:58:24.239Z,72.80
